sensor_id;sensor_type;location;lat;lon;timestamp;temperature;humidity
47757;SHT35;22147;52.388;13.390;2022-12-07T00:02:13;2.46;92.93
47757;SHT35;22147;52.388;13.390;2022-12-07T00:04:43;2.46;93.18
47757;SHT35;22147;52.388;13.390;2022-12-07T00:07:13;2.50;93.19
47757;SHT35;22147;52.388;13.390;2022-12-07T00:09:43;2.44;93.04
47757;SHT35;22147;52.388;13.390;2022-12-07T00:12:20;2.44;93.16
47757;SHT35;22147;52.388;13.390;2022-12-07T00:14:47;2.34;92.90
47757;SHT35;22147;52.388;13.390;2022-12-07T00:17:17;2.34;92.71
47757;SHT35;22147;52.388;13.390;2022-12-07T00:19:47;2.36;92.39
47757;SHT35;22147;52.388;13.390;2022-12-07T00:22:16;2.28;92.20
47757;SHT35;22147;52.388;13.390;2022-12-07T00:24:46;2.28;91.85
47757;SHT35;22147;52.388;13.390;2022-12-07T00:27:16;2.29;91.49
47757;SHT35;22147;52.388;13.390;2022-12-07T00:29:46;2.30;90.95
47757;SHT35;22147;52.388;13.390;2022-12-07T00:32:16;2.22;90.71
47757;SHT35;22147;52.388;13.390;2022-12-07T00:34:46;2.25;91.09
47757;SHT35;22147;52.388;13.390;2022-12-07T00:37:15;2.19;90.74
47757;SHT35;22147;52.388;13.390;2022-12-07T00:39:46;2.19;90.65
47757;SHT35;22147;52.388;13.390;2022-12-07T00:42:15;2.11;90.46
47757;SHT35;22147;52.388;13.390;2022-12-07T00:44:43;2.05;90.41
47757;SHT35;22147;52.388;13.390;2022-12-07T00:47:13;2.08;90.25
47757;SHT35;22147;52.388;13.390;2022-12-07T00:49:43;1.99;89.74
47757;SHT35;22147;52.388;13.390;2022-12-07T00:52:13;1.86;89.85
47757;SHT35;22147;52.388;13.390;2022-12-07T00:54:42;1.72;90.21
47757;SHT35;22147;52.388;13.390;2022-12-07T00:57:11;1.68;90.27
47757;SHT35;22147;52.388;13.390;2022-12-07T00:59:40;1.63;90.18
47757;SHT35;22147;52.388;13.390;2022-12-07T01:02:08;1.57;90.63
47757;SHT35;22147;52.388;13.390;2022-12-07T01:04:36;1.51;90.61
47757;SHT35;22147;52.388;13.390;2022-12-07T01:07:05;1.48;90.68
47757;SHT35;22147;52.388;13.390;2022-12-07T01:09:34;1.51;91.00
47757;SHT35;22147;52.388;13.390;2022-12-07T01:12:03;1.47;90.90
47757;SHT35;22147;52.388;13.390;2022-12-07T01:14:34;1.51;90.71
47757;SHT35;22147;52.388;13.390;2022-12-07T01:17:03;1.57;90.69
47757;SHT35;22147;52.388;13.390;2022-12-07T01:19:33;1.55;90.96
47757;SHT35;22147;52.388;13.390;2022-12-07T01:22:03;1.54;91.11
47757;SHT35;22147;52.388;13.390;2022-12-07T01:24:33;1.55;91.05
47757;SHT35;22147;52.388;13.390;2022-12-07T01:27:03;1.55;90.82
47757;SHT35;22147;52.388;13.390;2022-12-07T01:29:33;1.55;90.89
47757;SHT35;22147;52.388;13.390;2022-12-07T01:32:03;1.58;90.97
47757;SHT35;22147;52.388;13.390;2022-12-07T01:34:32;1.57;90.90
47757;SHT35;22147;52.388;13.390;2022-12-07T01:37:03;1.57;90.75
47757;SHT35;22147;52.388;13.390;2022-12-07T01:39:31;1.57;90.77
47757;SHT35;22147;52.388;13.390;2022-12-07T01:41:59;1.51;90.87
47757;SHT35;22147;52.388;13.390;2022-12-07T01:44:31;1.53;90.99
47757;SHT35;22147;52.388;13.390;2022-12-07T01:47:04;1.47;90.98
47757;SHT35;22147;52.388;13.390;2022-12-07T01:49:47;1.43;91.43
47757;SHT35;22147;52.388;13.390;2022-12-07T01:52:31;1.43;91.57
47757;SHT35;22147;52.388;13.390;2022-12-07T01:55:12;1.44;91.67
47757;SHT35;22147;52.388;13.390;2022-12-07T01:57:52;1.47;91.83
47757;SHT35;22147;52.388;13.390;2022-12-07T02:00:23;1.50;91.92
47757;SHT35;22147;52.388;13.390;2022-12-07T02:05:38;1.32;91.67
47757;SHT35;22147;52.388;13.390;2022-12-07T02:08:12;1.32;91.51
47757;SHT35;22147;52.388;13.390;2022-12-07T02:10:43;1.30;91.59
47757;SHT35;22147;52.388;13.390;2022-12-07T02:13:24;1.23;91.75
47757;SHT35;22147;52.388;13.390;2022-12-07T02:19:39;1.23;91.90
47757;SHT35;22147;52.388;13.390;2022-12-07T02:29:49;1.03;91.80
47757;SHT35;22147;52.388;13.390;2022-12-07T02:36:18;1.03;91.89
47757;SHT35;22147;52.388;13.390;2022-12-07T02:39:00;1.00;91.96
47757;SHT35;22147;52.388;13.390;2022-12-07T02:41:51;1.09;92.07
47757;SHT35;22147;52.388;13.390;2022-12-07T02:44:28;1.12;91.90
47757;SHT35;22147;52.388;13.390;2022-12-07T02:47:12;1.09;91.72
47757;SHT35;22147;52.388;13.390;2022-12-07T02:49:44;1.11;91.72
47757;SHT35;22147;52.388;13.390;2022-12-07T02:52:15;1.07;91.62
47757;SHT35;22147;52.388;13.390;2022-12-07T02:54:45;1.09;91.60
47757;SHT35;22147;52.388;13.390;2022-12-07T03:03:48;1.09;91.67
47757;SHT35;22147;52.388;13.390;2022-12-07T03:06:32;1.09;91.73
47757;SHT35;22147;52.388;13.390;2022-12-07T03:09:33;1.09;91.83
47757;SHT35;22147;52.388;13.390;2022-12-07T03:12:27;1.05;91.95
47757;SHT35;22147;52.388;13.390;2022-12-07T03:15:23;1.03;92.08
47757;SHT35;22147;52.388;13.390;2022-12-07T03:18:02;1.06;92.39
47757;SHT35;22147;52.388;13.390;2022-12-07T03:20:40;1.11;92.31
47757;SHT35;22147;52.388;13.390;2022-12-07T03:23:15;1.15;92.37
47757;SHT35;22147;52.388;13.390;2022-12-07T03:25:53;1.07;92.57
47757;SHT35;22147;52.388;13.390;2022-12-07T03:28:42;1.19;92.88
47757;SHT35;22147;52.388;13.390;2022-12-07T03:31:31;1.12;92.50
47757;SHT35;22147;52.388;13.390;2022-12-07T03:34:26;1.06;92.45
47757;SHT35;22147;52.388;13.390;2022-12-07T03:37:20;0.99;92.70
47757;SHT35;22147;52.388;13.390;2022-12-07T03:42:43;1.23;93.03
47757;SHT35;22147;52.388;13.390;2022-12-07T03:45:16;1.23;92.74
47757;SHT35;22147;52.388;13.390;2022-12-07T03:51:22;1.20;92.55
47757;SHT35;22147;52.388;13.390;2022-12-07T03:54:26;1.37;92.71
47757;SHT35;22147;52.388;13.390;2022-12-07T03:57:01;1.33;92.38
47757;SHT35;22147;52.388;13.390;2022-12-07T03:59:34;1.23;92.63
47757;SHT35;22147;52.388;13.390;2022-12-07T04:02:07;1.22;92.82
47757;SHT35;22147;52.388;13.390;2022-12-07T04:04:43;1.19;92.94
47757;SHT35;22147;52.388;13.390;2022-12-07T04:07:13;1.33;93.10
47757;SHT35;22147;52.388;13.390;2022-12-07T04:09:43;1.34;93.10
47757;SHT35;22147;52.388;13.390;2022-12-07T04:12:14;1.39;93.02
47757;SHT35;22147;52.388;13.390;2022-12-07T04:14:44;1.33;92.93
47757;SHT35;22147;52.388;13.390;2022-12-07T04:17:15;1.32;93.18
47757;SHT35;22147;52.388;13.390;2022-12-07T04:19:45;1.24;93.40
47757;SHT35;22147;52.388;13.390;2022-12-07T04:22:15;1.36;93.52
47757;SHT35;22147;52.388;13.390;2022-12-07T04:24:45;1.30;93.42
47757;SHT35;22147;52.388;13.390;2022-12-07T04:27:15;1.20;93.58
47757;SHT35;22147;52.388;13.390;2022-12-07T04:29:45;1.11;93.84
47757;SHT35;22147;52.388;13.390;2022-12-07T04:32:15;1.11;94.02
47757;SHT35;22147;52.388;13.390;2022-12-07T04:34:44;1.12;94.25
47757;SHT35;22147;52.388;13.390;2022-12-07T04:37:12;1.24;94.42
47757;SHT35;22147;52.388;13.390;2022-12-07T04:39:41;1.24;94.32
47757;SHT35;22147;52.388;13.390;2022-12-07T04:42:11;1.30;94.30
47757;SHT35;22147;52.388;13.390;2022-12-07T04:44:40;1.30;94.06
47757;SHT35;22147;52.388;13.390;2022-12-07T04:47:11;1.30;94.12
47757;SHT35;22147;52.388;13.390;2022-12-07T04:49:41;1.22;94.34
47757;SHT35;22147;52.388;13.390;2022-12-07T04:52:11;1.24;94.67
47757;SHT35;22147;52.388;13.390;2022-12-07T04:54:41;1.29;94.85
47757;SHT35;22147;52.388;13.390;2022-12-07T04:57:11;1.30;95.00
47757;SHT35;22147;52.388;13.390;2022-12-07T04:59:39;1.33;95.08
47757;SHT35;22147;52.388;13.390;2022-12-07T05:02:14;1.39;95.25
47757;SHT35;22147;52.388;13.390;2022-12-07T05:04:44;1.43;95.32
47757;SHT35;22147;52.388;13.390;2022-12-07T05:07:14;1.47;95.28
47757;SHT35;22147;52.388;13.390;2022-12-07T05:09:44;1.57;95.21
47757;SHT35;22147;52.388;13.390;2022-12-07T05:12:15;1.55;95.08
47757;SHT35;22147;52.388;13.390;2022-12-07T05:14:45;1.60;95.10
47757;SHT35;22147;52.388;13.390;2022-12-07T05:17:15;1.65;95.09
47757;SHT35;22147;52.388;13.390;2022-12-07T05:19:46;1.74;95.04
47757;SHT35;22147;52.388;13.390;2022-12-07T05:22:16;1.72;94.84
47757;SHT35;22147;52.388;13.390;2022-12-07T05:24:46;1.65;94.72
47757;SHT35;22147;52.388;13.390;2022-12-07T05:27:16;1.65;94.81
47757;SHT35;22147;52.388;13.390;2022-12-07T05:29:46;1.67;94.90
47757;SHT35;22147;52.388;13.390;2022-12-07T05:32:17;1.70;94.96
47757;SHT35;22147;52.388;13.390;2022-12-07T05:34:47;1.65;95.04
47757;SHT35;22147;52.388;13.390;2022-12-07T05:37:17;1.65;95.08
47757;SHT35;22147;52.388;13.390;2022-12-07T05:39:47;1.65;95.15
47757;SHT35;22147;52.388;13.390;2022-12-07T05:42:18;1.74;95.27
47757;SHT35;22147;52.388;13.390;2022-12-07T05:44:48;1.78;95.30
47757;SHT35;22147;52.388;13.390;2022-12-07T05:47:18;1.81;95.34
47757;SHT35;22147;52.388;13.390;2022-12-07T05:49:48;1.82;95.42
47757;SHT35;22147;52.388;13.390;2022-12-07T05:52:18;1.84;95.46
47757;SHT35;22147;52.388;13.390;2022-12-07T05:54:49;1.85;95.47
47757;SHT35;22147;52.388;13.390;2022-12-07T05:57:19;1.90;95.59
47757;SHT35;22147;52.388;13.390;2022-12-07T05:59:49;1.94;95.54
47757;SHT35;22147;52.388;13.390;2022-12-07T06:02:19;2.02;95.63
47757;SHT35;22147;52.388;13.390;2022-12-07T06:04:50;2.06;95.52
47757;SHT35;22147;52.388;13.390;2022-12-07T06:07:20;2.06;95.42
47757;SHT35;22147;52.388;13.390;2022-12-07T06:09:48;2.03;95.37
47757;SHT35;22147;52.388;13.390;2022-12-07T06:12:15;2.03;95.36
47757;SHT35;22147;52.388;13.390;2022-12-07T06:15:04;2.12;95.53
47757;SHT35;22147;52.388;13.390;2022-12-07T06:17:35;2.11;95.46
47757;SHT35;22147;52.388;13.390;2022-12-07T06:20:06;2.09;95.48
47757;SHT35;22147;52.388;13.390;2022-12-07T06:22:36;2.18;95.58
47757;SHT35;22147;52.388;13.390;2022-12-07T06:25:05;2.16;95.52
47757;SHT35;22147;52.388;13.390;2022-12-07T06:27:36;2.41;95.59
47757;SHT35;22147;52.388;13.390;2022-12-07T06:30:05;2.23;95.20
47757;SHT35;22147;52.388;13.390;2022-12-07T06:32:37;2.29;95.24
47757;SHT35;22147;52.388;13.390;2022-12-07T06:35:07;2.28;95.22
47757;SHT35;22147;52.388;13.390;2022-12-07T06:37:37;2.29;95.19
47757;SHT35;22147;52.388;13.390;2022-12-07T06:40:09;2.29;95.30
47757;SHT35;22147;52.388;13.390;2022-12-07T06:42:39;2.34;95.30
47757;SHT35;22147;52.388;13.390;2022-12-07T06:45:10;2.34;95.33
47757;SHT35;22147;52.388;13.390;2022-12-07T06:47:40;2.36;95.34
47757;SHT35;22147;52.388;13.390;2022-12-07T06:50:13;2.39;95.30
47757;SHT35;22147;52.388;13.390;2022-12-07T06:52:43;2.44;95.39
47757;SHT35;22147;52.388;13.390;2022-12-07T06:55:13;2.51;95.38
47757;SHT35;22147;52.388;13.390;2022-12-07T06:57:44;2.53;95.26
47757;SHT35;22147;52.388;13.390;2022-12-07T07:00:15;2.51;95.25
47757;SHT35;22147;52.388;13.390;2022-12-07T07:02:51;2.58;95.21
47757;SHT35;22147;52.388;13.390;2022-12-07T07:05:22;2.60;95.20
47757;SHT35;22147;52.388;13.390;2022-12-07T07:07:52;2.65;95.14
47757;SHT35;22147;52.388;13.390;2022-12-07T07:10:41;2.64;95.08
47757;SHT35;22147;52.388;13.390;2022-12-07T07:13:09;2.71;95.14
47757;SHT35;22147;52.388;13.390;2022-12-07T07:15:39;2.76;95.03
47757;SHT35;22147;52.388;13.390;2022-12-07T07:18:06;2.78;94.89
47757;SHT35;22147;52.388;13.390;2022-12-07T07:20:36;2.85;94.78
47757;SHT35;22147;52.388;13.390;2022-12-07T07:23:04;2.90;94.72
47757;SHT35;22147;52.388;13.390;2022-12-07T07:25:32;2.91;94.53
47757;SHT35;22147;52.388;13.390;2022-12-07T07:28:01;2.92;94.55
47757;SHT35;22147;52.388;13.390;2022-12-07T07:30:29;3.04;94.39
47757;SHT35;22147;52.388;13.390;2022-12-07T07:33:03;2.97;94.17
47757;SHT35;22147;52.388;13.390;2022-12-07T07:35:34;3.01;94.15
47757;SHT35;22147;52.388;13.390;2022-12-07T07:38:07;2.99;94.20
47757;SHT35;22147;52.388;13.390;2022-12-07T07:40:37;3.08;94.22
47757;SHT35;22147;52.388;13.390;2022-12-07T07:43:07;3.09;94.23
47757;SHT35;22147;52.388;13.390;2022-12-07T07:45:37;3.07;94.13
47757;SHT35;22147;52.388;13.390;2022-12-07T07:48:08;3.13;94.22
47757;SHT35;22147;52.388;13.390;2022-12-07T07:50:38;3.12;94.08
47757;SHT35;22147;52.388;13.390;2022-12-07T07:53:08;3.07;94.18
47757;SHT35;22147;52.388;13.390;2022-12-07T07:55:38;3.19;94.29
47757;SHT35;22147;52.388;13.390;2022-12-07T07:58:08;3.25;93.53
47757;SHT35;22147;52.388;13.390;2022-12-07T08:00:38;3.25;92.98
47757;SHT35;22147;52.388;13.390;2022-12-07T08:03:08;3.30;92.64
47757;SHT35;22147;52.388;13.390;2022-12-07T08:05:38;3.32;92.30
47757;SHT35;22147;52.388;13.390;2022-12-07T08:08:08;3.25;91.95
47757;SHT35;22147;52.388;13.390;2022-12-07T08:10:39;3.26;91.98
47757;SHT35;22147;52.388;13.390;2022-12-07T08:13:09;3.36;91.98
47757;SHT35;22147;52.388;13.390;2022-12-07T08:15:47;3.32;91.87
47757;SHT35;22147;52.388;13.390;2022-12-07T08:18:17;3.33;92.27
47757;SHT35;22147;52.388;13.390;2022-12-07T08:20:48;3.36;92.36
47757;SHT35;22147;52.388;13.390;2022-12-07T08:23:18;3.52;92.01
47757;SHT35;22147;52.388;13.390;2022-12-07T08:25:48;3.53;91.85
47757;SHT35;22147;52.388;13.390;2022-12-07T08:28:18;3.52;91.11
47757;SHT35;22147;52.388;13.390;2022-12-07T08:30:48;3.59;90.67
47757;SHT35;22147;52.388;13.390;2022-12-07T08:33:18;3.57;90.43
47757;SHT35;22147;52.388;13.390;2022-12-07T08:35:49;3.57;90.04
47757;SHT35;22147;52.388;13.390;2022-12-07T08:38:19;3.59;89.02
47757;SHT35;22147;52.388;13.390;2022-12-07T08:40:58;3.63;88.88
47757;SHT35;22147;52.388;13.390;2022-12-07T08:43:29;3.59;88.91
47757;SHT35;22147;52.388;13.390;2022-12-07T08:46:21;3.60;89.52
47757;SHT35;22147;52.388;13.390;2022-12-07T08:49:09;3.66;89.25
47757;SHT35;22147;52.388;13.390;2022-12-07T08:51:41;3.70;89.34
47757;SHT35;22147;52.388;13.390;2022-12-07T08:54:17;3.69;89.01
47757;SHT35;22147;52.388;13.390;2022-12-07T08:56:50;3.67;88.33
47757;SHT35;22147;52.388;13.390;2022-12-07T08:59:28;3.78;86.59
47757;SHT35;22147;52.388;13.390;2022-12-07T09:01:57;3.84;84.64
47757;SHT35;22147;52.388;13.390;2022-12-07T09:04:26;3.81;84.28
47757;SHT35;22147;52.388;13.390;2022-12-07T09:06:56;3.73;85.02
47757;SHT35;22147;52.388;13.390;2022-12-07T09:09:26;3.63;85.57
47757;SHT35;22147;52.388;13.390;2022-12-07T09:11:57;3.62;86.66
47757;SHT35;22147;52.388;13.390;2022-12-07T09:14:27;3.60;86.32
47757;SHT35;22147;52.388;13.390;2022-12-07T09:17:12;3.56;85.65
47757;SHT35;22147;52.388;13.390;2022-12-07T09:19:42;3.67;83.08
47757;SHT35;22147;52.388;13.390;2022-12-07T09:22:12;3.57;81.35
47757;SHT35;22147;52.388;13.390;2022-12-07T09:24:42;3.44;81.99
47757;SHT35;22147;52.388;13.390;2022-12-07T09:27:12;3.47;82.64
47757;SHT35;22147;52.388;13.390;2022-12-07T09:29:42;3.55;81.86
47757;SHT35;22147;52.388;13.390;2022-12-07T09:32:12;3.53;82.15
47757;SHT35;22147;52.388;13.390;2022-12-07T09:34:41;3.49;81.91
47757;SHT35;22147;52.388;13.390;2022-12-07T09:37:11;3.50;82.16
47757;SHT35;22147;52.388;13.390;2022-12-07T09:39:41;3.53;81.53
47757;SHT35;22147;52.388;13.390;2022-12-07T09:42:39;3.64;82.34
47757;SHT35;22147;52.388;13.390;2022-12-07T09:45:36;3.63;81.95
47757;SHT35;22147;52.388;13.390;2022-12-07T09:48:45;3.57;82.75
47757;SHT35;22147;52.388;13.390;2022-12-07T09:51:24;3.67;83.20
47757;SHT35;22147;52.388;13.390;2022-12-07T09:53:59;3.80;82.39
47757;SHT35;22147;52.388;13.390;2022-12-07T09:56:31;3.78;82.34
47757;SHT35;22147;52.388;13.390;2022-12-07T09:59:03;3.64;81.54
47757;SHT35;22147;52.388;13.390;2022-12-07T10:01:33;3.66;81.26
47757;SHT35;22147;52.388;13.390;2022-12-07T10:06:49;3.70;80.88
47757;SHT35;22147;52.388;13.390;2022-12-07T10:09:21;3.70;80.79
47757;SHT35;22147;52.388;13.390;2022-12-07T10:12:12;3.67;81.42
47757;SHT35;22147;52.388;13.390;2022-12-07T10:15:05;3.53;81.88
47757;SHT35;22147;52.388;13.390;2022-12-07T10:17:47;3.52;82.57
47757;SHT35;22147;52.388;13.390;2022-12-07T10:20:25;3.44;83.08
47757;SHT35;22147;52.388;13.390;2022-12-07T10:23:08;3.42;82.60
47757;SHT35;22147;52.388;13.390;2022-12-07T10:25:44;3.55;82.60
47757;SHT35;22147;52.388;13.390;2022-12-07T10:28:18;3.64;80.97
47757;SHT35;22147;52.388;13.390;2022-12-07T10:33:51;3.49;81.63
47757;SHT35;22147;52.388;13.390;2022-12-07T10:36:38;3.50;82.20
47757;SHT35;22147;52.388;13.390;2022-12-07T10:39:16;3.50;81.71
47757;SHT35;22147;52.388;13.390;2022-12-07T10:42:03;3.63;82.51
47757;SHT35;22147;52.388;13.390;2022-12-07T10:44:34;3.73;81.77
47757;SHT35;22147;52.388;13.390;2022-12-07T10:48:31;3.80;82.29
47757;SHT35;22147;52.388;13.390;2022-12-07T10:57:08;3.77;83.47
47757;SHT35;22147;52.388;13.390;2022-12-07T11:00:03;3.86;83.38
47757;SHT35;22147;52.388;13.390;2022-12-07T11:06:16;3.80;83.81
47757;SHT35;22147;52.388;13.390;2022-12-07T11:10:35;3.86;84.26
47757;SHT35;22147;52.388;13.390;2022-12-07T11:13:00;3.94;84.04
47757;SHT35;22147;52.388;13.390;2022-12-07T11:16:21;3.91;83.47
47757;SHT35;22147;52.388;13.390;2022-12-07T11:22:33;4.01;83.88
47757;SHT35;22147;52.388;13.390;2022-12-07T11:26:04;4.01;84.11
47757;SHT35;22147;52.388;13.390;2022-12-07T11:37:28;4.09;82.54
47757;SHT35;22147;52.388;13.390;2022-12-07T11:40:36;4.01;82.72
47757;SHT35;22147;52.388;13.390;2022-12-07T11:43:28;4.07;82.88
47757;SHT35;22147;52.388;13.390;2022-12-07T11:46:15;4.12;83.05
47757;SHT35;22147;52.388;13.390;2022-12-07T11:49:24;4.15;83.20
47757;SHT35;22147;52.388;13.390;2022-12-07T11:52:04;4.12;83.06
47757;SHT35;22147;52.388;13.390;2022-12-07T11:54:43;4.12;82.85
47757;SHT35;22147;52.388;13.390;2022-12-07T11:57:54;4.12;83.52
47757;SHT35;22147;52.388;13.390;2022-12-07T12:00:28;4.09;83.51
47757;SHT35;22147;52.388;13.390;2022-12-07T12:03:15;4.16;83.59
47757;SHT35;22147;52.388;13.390;2022-12-07T12:05:50;4.22;83.52
47757;SHT35;22147;52.388;13.390;2022-12-07T12:09:06;4.25;83.67
47757;SHT35;22147;52.388;13.390;2022-12-07T12:12:54;4.44;83.38
47757;SHT35;22147;52.388;13.390;2022-12-07T12:19:34;4.35;82.80
47757;SHT35;22147;52.388;13.390;2022-12-07T12:22:45;4.32;82.79
47757;SHT35;22147;52.388;13.390;2022-12-07T12:27:59;4.22;83.58
47757;SHT35;22147;52.388;13.390;2022-12-07T12:30:39;4.25;83.75
47757;SHT35;22147;52.388;13.390;2022-12-07T12:33:32;4.32;82.79
47757;SHT35;22147;52.388;13.390;2022-12-07T12:47:42;4.53;82.70
47757;SHT35;22147;52.388;13.390;2022-12-07T12:50:21;4.55;82.51
47757;SHT35;22147;52.388;13.390;2022-12-07T12:53:00;4.60;82.40
47757;SHT35;22147;52.388;13.390;2022-12-07T12:56:58;4.60;82.40
47757;SHT35;22147;52.388;13.390;2022-12-07T13:18:45;4.74;82.12
47757;SHT35;22147;52.388;13.390;2022-12-07T13:31:50;4.59;83.23
47757;SHT35;22147;52.388;13.390;2022-12-07T13:34:47;4.60;82.38
47757;SHT35;22147;52.388;13.390;2022-12-07T13:37:31;4.60;83.02
47757;SHT35;22147;52.388;13.390;2022-12-07T13:40:22;4.45;83.08
47757;SHT35;22147;52.388;13.390;2022-12-07T13:43:14;4.48;82.86
47757;SHT35;22147;52.388;13.390;2022-12-07T13:45:57;4.36;82.83
47757;SHT35;22147;52.388;13.390;2022-12-07T13:48:48;4.28;83.46
47757;SHT35;22147;52.388;13.390;2022-12-07T13:51:27;4.26;83.38
47757;SHT35;22147;52.388;13.390;2022-12-07T13:54:11;4.25;83.50
47757;SHT35;22147;52.388;13.390;2022-12-07T13:56:43;4.22;83.51
47757;SHT35;22147;52.388;13.390;2022-12-07T13:59:25;4.25;83.16
47757;SHT35;22147;52.388;13.390;2022-12-07T14:01:56;4.24;83.32
47757;SHT35;22147;52.388;13.390;2022-12-07T14:04:38;4.15;83.59
47757;SHT35;22147;52.388;13.390;2022-12-07T14:07:26;4.18;83.43
47757;SHT35;22147;52.388;13.390;2022-12-07T14:10:01;4.05;83.88
47757;SHT35;22147;52.388;13.390;2022-12-07T14:12:36;4.01;84.63
47757;SHT35;22147;52.388;13.390;2022-12-07T14:15:25;3.98;84.31
47757;SHT35;22147;52.388;13.390;2022-12-07T14:18:00;3.97;84.96
47757;SHT35;22147;52.388;13.390;2022-12-07T14:20:40;4.01;84.74
47757;SHT35;22147;52.388;13.390;2022-12-07T14:23:27;4.07;84.14
47757;SHT35;22147;52.388;13.390;2022-12-07T14:26:11;4.05;84.59
47757;SHT35;22147;52.388;13.390;2022-12-07T14:28:43;4.11;84.48
47757;SHT35;22147;52.388;13.390;2022-12-07T14:31:24;4.12;84.40
47757;SHT35;22147;52.388;13.390;2022-12-07T14:34:00;4.07;84.59
47757;SHT35;22147;52.388;13.390;2022-12-07T14:36:30;4.08;84.71
47757;SHT35;22147;52.388;13.390;2022-12-07T14:39:00;4.08;84.57
47757;SHT35;22147;52.388;13.390;2022-12-07T14:41:30;4.07;84.49
47757;SHT35;22147;52.388;13.390;2022-12-07T14:44:23;3.95;85.07
47757;SHT35;22147;52.388;13.390;2022-12-07T14:46:58;3.88;85.05
47757;SHT35;22147;52.388;13.390;2022-12-07T14:49:48;3.88;84.87
47757;SHT35;22147;52.388;13.390;2022-12-07T14:52:29;3.88;84.93
47757;SHT35;22147;52.388;13.390;2022-12-07T14:55:29;3.80;85.08
47757;SHT35;22147;52.388;13.390;2022-12-07T14:58:00;3.74;85.02
47757;SHT35;22147;52.388;13.390;2022-12-07T15:00:30;3.69;85.38
47757;SHT35;22147;52.388;13.390;2022-12-07T15:03:00;3.57;85.58
47757;SHT35;22147;52.388;13.390;2022-12-07T15:05:30;3.49;85.77
47757;SHT35;22147;52.388;13.390;2022-12-07T15:08:01;3.44;85.93
47757;SHT35;22147;52.388;13.390;2022-12-07T15:10:34;3.36;86.33
47757;SHT35;22147;52.388;13.390;2022-12-07T15:13:04;3.39;86.30
47757;SHT35;22147;52.388;13.390;2022-12-07T15:15:55;3.28;86.24
47757;SHT35;22147;52.388;13.390;2022-12-07T15:18:25;3.18;86.29
47757;SHT35;22147;52.388;13.390;2022-12-07T15:20:55;3.12;86.67
47757;SHT35;22147;52.388;13.390;2022-12-07T15:23:25;3.16;86.78
47757;SHT35;22147;52.388;13.390;2022-12-07T15:25:55;3.07;86.78
47757;SHT35;22147;52.388;13.390;2022-12-07T15:28:25;2.95;87.26
47757;SHT35;22147;52.388;13.390;2022-12-07T15:30:55;2.85;87.35
47757;SHT35;22147;52.388;13.390;2022-12-07T15:33:25;2.83;87.75
47757;SHT35;22147;52.388;13.390;2022-12-07T15:35:55;2.78;87.79
47757;SHT35;22147;52.388;13.390;2022-12-07T15:38:28;2.71;87.85
47757;SHT35;22147;52.388;13.390;2022-12-07T15:41:21;2.71;87.64
47757;SHT35;22147;52.388;13.390;2022-12-07T15:43:51;2.64;87.98
47757;SHT35;22147;52.388;13.390;2022-12-07T15:46:41;2.54;88.52
47757;SHT35;22147;52.388;13.390;2022-12-07T15:49:20;2.53;88.68
47757;SHT35;22147;52.388;13.390;2022-12-07T15:51:50;2.54;89.05
47757;SHT35;22147;52.388;13.390;2022-12-07T15:54:26;2.49;88.97
47757;SHT35;22147;52.388;13.390;2022-12-07T15:56:56;2.51;89.16
47757;SHT35;22147;52.388;13.390;2022-12-07T15:59:26;2.47;89.16
47757;SHT35;22147;52.388;13.390;2022-12-07T16:01:58;2.47;89.09
47757;SHT35;22147;52.388;13.390;2022-12-07T16:04:29;2.40;89.14
47757;SHT35;22147;52.388;13.390;2022-12-07T16:06:59;2.46;89.39
47757;SHT35;22147;52.388;13.390;2022-12-07T16:09:29;2.41;89.30
47757;SHT35;22147;52.388;13.390;2022-12-07T16:11:59;2.44;89.41
47757;SHT35;22147;52.388;13.390;2022-12-07T16:14:29;2.46;89.29
47757;SHT35;22147;52.388;13.390;2022-12-07T16:17:02;2.40;89.26
47757;SHT35;22147;52.388;13.390;2022-12-07T16:19:34;2.39;89.22
47757;SHT35;22147;52.388;13.390;2022-12-07T16:22:05;2.47;89.18
47757;SHT35;22147;52.388;13.390;2022-12-07T16:24:36;2.49;88.65
47757;SHT35;22147;52.388;13.390;2022-12-07T16:27:06;2.43;88.92
47757;SHT35;22147;52.388;13.390;2022-12-07T16:29:36;2.60;88.78
47757;SHT35;22147;52.388;13.390;2022-12-07T16:32:06;2.60;87.84
47757;SHT35;22147;52.388;13.390;2022-12-07T16:34:36;2.54;88.18
47757;SHT35;22147;52.388;13.390;2022-12-07T16:37:06;2.40;88.44
47757;SHT35;22147;52.388;13.390;2022-12-07T16:39:36;2.46;88.63
47757;SHT35;22147;52.388;13.390;2022-12-07T16:42:08;2.43;88.72
47757;SHT35;22147;52.388;13.390;2022-12-07T16:44:40;2.44;88.95
47757;SHT35;22147;52.388;13.390;2022-12-07T16:47:11;2.51;88.83
47757;SHT35;22147;52.388;13.390;2022-12-07T16:49:43;2.51;88.71
47757;SHT35;22147;52.388;13.390;2022-12-07T16:52:13;2.49;88.76
47757;SHT35;22147;52.388;13.390;2022-12-07T16:54:51;2.51;88.37
47757;SHT35;22147;52.388;13.390;2022-12-07T16:57:21;2.57;88.26
47757;SHT35;22147;52.388;13.390;2022-12-07T16:59:52;2.57;87.89
47757;SHT35;22147;52.388;13.390;2022-12-07T17:02:23;2.54;88.17
47757;SHT35;22147;52.388;13.390;2022-12-07T17:04:53;2.46;88.22
47757;SHT35;22147;52.388;13.390;2022-12-07T17:07:23;2.44;88.33
47757;SHT35;22147;52.388;13.390;2022-12-07T17:09:53;2.36;88.34
47757;SHT35;22147;52.388;13.390;2022-12-07T17:12:23;2.29;88.64
47757;SHT35;22147;52.388;13.390;2022-12-07T17:14:55;2.34;88.70
47757;SHT35;22147;52.388;13.390;2022-12-07T17:17:57;2.28;88.36
47757;SHT35;22147;52.388;13.390;2022-12-07T17:20:27;2.26;88.80
47757;SHT35;22147;52.388;13.390;2022-12-07T17:22:57;2.36;88.42
47757;SHT35;22147;52.388;13.390;2022-12-07T17:25:27;2.33;88.48
47757;SHT35;22147;52.388;13.390;2022-12-07T17:27:56;2.37;88.01
47757;SHT35;22147;52.388;13.390;2022-12-07T17:30:26;2.32;88.22
47757;SHT35;22147;52.388;13.390;2022-12-07T17:32:56;2.33;88.09
47757;SHT35;22147;52.388;13.390;2022-12-07T17:35:23;2.16;88.24
47757;SHT35;22147;52.388;13.390;2022-12-07T17:37:50;2.23;88.34
47757;SHT35;22147;52.388;13.390;2022-12-07T17:40:20;2.08;88.43
47757;SHT35;22147;52.388;13.390;2022-12-07T17:42:50;2.02;88.85
47757;SHT35;22147;52.388;13.390;2022-12-07T17:45:20;1.95;88.87
47757;SHT35;22147;52.388;13.390;2022-12-07T17:47:50;1.84;89.03
47757;SHT35;22147;52.388;13.390;2022-12-07T17:50:20;1.81;89.21
47757;SHT35;22147;52.388;13.390;2022-12-07T17:53:11;1.72;89.66
47757;SHT35;22147;52.388;13.390;2022-12-07T17:55:40;1.64;89.79
47757;SHT35;22147;52.388;13.390;2022-12-07T17:58:30;1.60;89.95
47757;SHT35;22147;52.388;13.390;2022-12-07T18:01:00;1.55;90.30
47757;SHT35;22147;52.388;13.390;2022-12-07T18:03:30;1.60;90.39
47757;SHT35;22147;52.388;13.390;2022-12-07T18:06:01;1.54;90.31
47757;SHT35;22147;52.388;13.390;2022-12-07T18:08:35;1.53;90.42
47757;SHT35;22147;52.388;13.390;2022-12-07T18:11:06;1.53;90.42